createdAt,value
2023-05-25T00:01:44.185Z,101073.56
2023-05-25T00:04:17.140Z,101079.31
2023-05-25T00:06:45.645Z,101074.06
2023-05-25T00:09:12.994Z,101078.63
2023-05-25T00:11:40.125Z,101067.47
2023-05-25T00:14:08.472Z,101056.94
2023-05-25T00:16:40.816Z,101058.63
2023-05-25T00:19:11.223Z,101052.88
2023-05-25T00:21:41.635Z,101057.75
2023-05-25T00:24:08.905Z,101065.72
2023-05-25T00:26:36.155Z,101059.28
2023-05-25T00:29:07.318Z,101065.00
2023-05-25T00:31:35.781Z,101061.91
2023-05-25T00:34:03.115Z,101063.59
2023-05-25T00:36:30.166Z,101063.28
2023-05-25T00:38:57.900Z,101062.91
2023-05-25T00:41:27.844Z,101053.13
2023-05-25T00:43:57.020Z,101063.09
2023-05-25T00:46:24.205Z,101058.53
2023-05-25T00:48:54.985Z,101055.13
2023-05-25T00:51:22.625Z,101053.06
2023-05-25T00:53:49.764Z,101060.81
2023-05-25T00:56:24.124Z,101066.41
2023-05-25T00:58:54.632Z,101064.50
2023-05-25T01:01:24.414Z,101060.13
2023-05-25T01:03:55.052Z,101064.84
2023-05-25T01:06:23.196Z,101058.91
2023-05-25T01:08:54.534Z,101069.72
2023-05-25T01:11:27.022Z,101072.25
2023-05-25T01:13:54.651Z,101065.19
2023-05-25T01:16:21.953Z,101061.13
2023-05-25T01:18:49.034Z,101064.69
2023-05-25T01:21:29.457Z,101054.03
2023-05-25T01:24:22.675Z,101054.34
2023-05-25T01:27:00.118Z,101056.38
2023-05-25T01:29:30.581Z,101067.34
2023-05-25T01:31:58.895Z,101056.38
2023-05-25T01:34:27.083Z,101062.13
2023-05-25T01:36:54.284Z,101058.44
2023-05-25T01:39:22.573Z,101055.88
2023-05-25T01:41:49.929Z,101051.31
2023-05-25T01:44:17.425Z,101055.88
2023-05-25T01:46:44.426Z,101051.16
2023-05-25T01:49:37.845Z,101052.00
2023-05-25T01:52:23.949Z,101051.03
2023-05-25T01:54:55.521Z,101052.19
2023-05-25T01:57:26.411Z,101051.69
2023-05-25T02:00:00.303Z,101055.06
2023-05-25T02:02:28.628Z,101042.56
2023-05-25T02:04:56.366Z,101051.34
2023-05-25T02:07:23.920Z,101051.03
2023-05-25T02:09:51.367Z,101058.47
2023-05-25T02:12:18.808Z,101064.22
2023-05-25T02:14:48.988Z,101067.28
2023-05-25T02:17:18.030Z,101059.81
2023-05-25T02:19:45.915Z,101056.44
2023-05-25T02:22:12.891Z,101053.03
2023-05-25T02:24:41.561Z,101055.59
2023-05-25T02:27:08.610Z,101059.31
2023-05-25T02:29:35.778Z,101065.88
2023-05-25T02:32:02.812Z,101058.44
2023-05-25T02:34:29.955Z,101065.06
2023-05-25T02:36:57.154Z,101052.72
2023-05-25T02:39:27.986Z,101049.63
2023-05-25T02:41:56.596Z,101044.22
2023-05-25T02:44:23.592Z,101046.94
2023-05-25T02:46:50.664Z,101048.81
2023-05-25T02:49:17.934Z,101053.69
2023-05-25T02:51:45.794Z,101044.34
2023-05-25T02:54:12.896Z,101040.13
2023-05-25T02:56:40.228Z,101042.47
2023-05-25T02:59:07.955Z,101043.44
2023-05-25T03:01:35.730Z,101043.09
2023-05-25T03:04:03.024Z,101039.88
2023-05-25T03:06:36.710Z,101038.75
2023-05-25T03:09:16.874Z,101035.19
2023-05-25T03:11:45.488Z,101032.13
2023-05-25T03:14:16.131Z,101027.56
2023-05-25T03:16:49.647Z,101027.84
2023-05-25T03:19:19.111Z,101017.38
2023-05-25T03:21:47.377Z,101026.50
2023-05-25T03:24:14.894Z,101023.41
2023-05-25T03:26:44.296Z,101028.31
2023-05-25T03:29:11.311Z,101038.50
2023-05-25T03:31:38.312Z,101028.19
2023-05-25T03:34:06.969Z,101025.34
2023-05-25T03:36:37.641Z,101025.13
2023-05-25T03:39:10.163Z,101017.72
2023-05-25T03:41:37.296Z,101027.13
2023-05-25T03:44:04.316Z,101033.19
2023-05-25T03:46:33.226Z,101034.88
2023-05-25T03:49:00.522Z,101036.38
2023-05-25T03:51:29.464Z,101046.34
2023-05-25T03:53:56.432Z,101043.25
2023-05-25T03:56:24.381Z,101050.03
2023-05-25T03:58:52.830Z,101053.47
2023-05-25T04:01:20.174Z,101050.03
2023-05-25T04:03:48.125Z,101041.56
2023-05-25T04:06:19.269Z,101042.41
2023-05-25T04:08:46.218Z,101043.25
2023-05-25T04:11:13.273Z,101050.38
2023-05-25T04:13:40.458Z,101053.41
2023-05-25T04:16:10.283Z,101047.00
2023-05-25T04:18:37.496Z,101046.34
2023-05-25T04:21:04.577Z,101051.41
2023-05-25T04:23:34.064Z,101047.19
2023-05-25T04:26:01.784Z,101050.03
2023-05-25T04:28:28.775Z,101056.38
2023-05-25T04:31:00.627Z,101058.38
2023-05-25T04:33:48.408Z,101062.72
2023-05-25T04:36:27.098Z,101063.03
2023-05-25T04:38:55.444Z,101073.81
2023-05-25T04:41:25.958Z,101074.66
2023-05-25T04:44:05.807Z,101074.16
2023-05-25T04:46:39.232Z,101077.78
2023-05-25T04:49:08.711Z,101081.09
2023-05-25T04:51:37.247Z,101082.28
2023-05-25T04:54:06.137Z,101091.44
2023-05-25T04:56:33.637Z,101101.41
2023-05-25T04:59:00.843Z,101117.59
2023-05-25T05:01:29.419Z,101115.06
2023-05-25T05:04:00.254Z,101105.31
2023-05-25T05:06:27.371Z,101117.84
2023-05-25T05:08:56.056Z,101114.22
2023-05-25T05:11:23.785Z,101108.81
2023-05-25T05:13:53.631Z,101105.41
2023-05-25T05:16:20.694Z,101115.81
2023-05-25T05:18:48.305Z,101120.34
2023-05-25T05:21:17.309Z,101129.41
2023-05-25T05:23:45.028Z,101127.16
2023-05-25T05:26:15.572Z,101134.69
2023-05-25T05:28:45.376Z,101137.97
2023-05-25T05:31:13.054Z,101147.59
2023-05-25T05:33:41.424Z,101155.28
2023-05-25T05:36:09.174Z,101145.13
2023-05-25T05:38:39.328Z,101152.69
2023-05-25T05:41:13.502Z,101146.50
2023-05-25T05:43:43.007Z,101145.25
2023-05-25T05:46:10.810Z,101147.06
2023-05-25T05:48:40.069Z,101152.53
2023-05-25T05:51:07.474Z,101163.81
2023-05-25T05:53:35.669Z,101166.63
2023-05-25T05:56:03.856Z,101175.66
2023-05-25T05:58:32.742Z,101184.69
2023-05-25T06:01:00.448Z,101180.06
2023-05-25T06:03:31.017Z,101183.16
2023-05-25T06:05:58.311Z,101177.16
2023-05-25T06:08:25.448Z,101179.38
2023-05-25T06:10:52.653Z,101175.50
2023-05-25T06:13:20.500Z,101165.88
2023-05-25T06:15:47.910Z,101159.38
2023-05-25T06:18:22.086Z,101160.63
2023-05-25T06:20:49.546Z,101155.91
2023-05-25T06:23:18.683Z,101151.34
2023-05-25T06:25:47.123Z,101153.19
2023-05-25T06:28:15.835Z,101141.22
2023-05-25T06:30:42.809Z,101148.78
2023-05-25T06:33:11.360Z,101152.72
2023-05-25T06:35:38.386Z,101156.81
2023-05-25T06:38:05.476Z,101160.22
2023-05-25T06:40:32.650Z,101162.59
2023-05-25T06:42:59.768Z,101173.09
2023-05-25T06:45:45.979Z,101175.66
2023-05-25T06:48:14.126Z,101179.34
2023-05-25T06:50:42.561Z,101172.25
2023-05-25T06:53:11.431Z,101172.78
2023-05-25T06:55:38.394Z,101177.28
2023-05-25T06:58:05.382Z,101177.56
2023-05-25T07:00:32.383Z,101179.88
2023-05-25T07:02:59.399Z,101170.19
2023-05-25T07:05:26.598Z,101168.16
2023-05-25T07:07:53.673Z,101175.28
2023-05-25T07:10:20.813Z,101172.09
2023-05-25T07:12:47.784Z,101168.66
2023-05-25T07:15:16.196Z,101161.09
2023-05-25T07:17:43.252Z,101172.75
2023-05-25T07:20:10.782Z,101177.34
2023-05-25T07:22:37.849Z,101171.66
2023-05-25T07:25:05.381Z,101177.59
2023-05-25T07:27:33.872Z,101172.88
2023-05-25T07:30:01.141Z,101181.31
2023-05-25T07:32:28.330Z,101181.84
2023-05-25T07:34:55.254Z,101188.09
2023-05-25T07:37:22.260Z,101187.78
2023-05-25T07:39:49.290Z,101185.50
2023-05-25T07:42:21.116Z,101192.44
2023-05-25T07:44:49.364Z,101192.97
2023-05-25T07:47:16.361Z,101190.28
2023-05-25T07:49:43.320Z,101194.06
2023-05-25T07:52:10.685Z,101185.97
2023-05-25T07:54:40.537Z,101192.75
2023-05-25T07:57:08.081Z,101192.38
2023-05-25T07:59:35.417Z,101189.50
2023-05-25T08:02:02.854Z,101199.28
2023-05-25T08:04:31.506Z,101197.63
2023-05-25T08:06:58.678Z,101204.03
2023-05-25T08:09:25.767Z,101201.84
2023-05-25T08:11:55.953Z,101210.97
2023-05-25T08:14:30.968Z,101217.78
2023-05-25T08:16:57.971Z,101216.69
2023-05-25T08:19:24.975Z,101216.06
2023-05-25T08:21:52.938Z,101219.16
2023-05-25T08:24:20.145Z,101220.84
2023-05-25T08:26:54.959Z,101220.31
2023-05-25T08:29:22.435Z,101223.00
2023-05-25T08:31:51.377Z,101224.25
2023-05-25T08:34:18.458Z,101222.53
2023-05-25T08:36:45.920Z,101231.50
2023-05-25T08:39:13.391Z,101233.59
2023-05-25T08:41:44.823Z,101232.88
2023-05-25T08:44:14.731Z,101240.53
2023-05-25T08:46:42.261Z,101241.56
2023-05-25T08:49:11.523Z,101246.97
2023-05-25T08:51:51.040Z,101250.06
2023-05-25T08:54:20.404Z,101250.72
2023-05-25T08:56:53.050Z,101258.53
2023-05-25T08:59:28.715Z,101262.78
2023-05-25T09:02:22.024Z,101260.31
2023-05-25T09:04:49.476Z,101266.72
2023-05-25T09:07:16.693Z,101260.50
2023-05-25T09:09:45.436Z,101252.91
2023-05-25T09:12:12.788Z,101265.44
2023-05-25T09:14:45.791Z,101261.97
2023-05-25T09:17:15.858Z,101261.13
2023-05-25T09:19:43.192Z,101254.34
2023-05-25T09:22:16.200Z,101260.78
2023-05-25T09:24:45.276Z,101260.19
2023-05-25T09:27:17.501Z,101256.16
2023-05-25T09:29:44.947Z,101258.53
2023-05-25T09:32:11.826Z,101254.44
2023-05-25T09:34:39.005Z,101255.16
2023-05-25T09:37:14.226Z,101255.53
2023-05-25T09:39:43.091Z,101259.75
2023-05-25T09:42:11.252Z,101258.59
2023-05-25T09:44:38.745Z,101259.59
2023-05-25T09:47:06.398Z,101262.84
2023-05-25T09:49:36.073Z,101262.69
2023-05-25T09:52:03.076Z,101265.06
2023-05-25T09:54:30.394Z,101259.00
2023-05-25T09:56:57.341Z,101270.19
2023-05-25T09:59:24.317Z,101265.44
2023-05-25T10:01:55.464Z,101275.63
2023-05-25T10:04:22.545Z,101269.22
2023-05-25T10:06:52.655Z,101273.94
2023-05-25T10:09:20.655Z,101277.69
2023-05-25T10:11:51.516Z,101273.66
2023-05-25T10:14:27.281Z,101281.94
2023-05-25T10:16:59.505Z,101287.34
2023-05-25T10:19:53.904Z,101287.56
2023-05-25T10:22:32.600Z,101288.19
2023-05-25T10:25:10.829Z,101288.47
2023-05-25T10:27:52.258Z,101294.34
2023-05-25T10:30:20.018Z,101298.88
2023-05-25T10:32:48.088Z,101289.38
2023-05-25T10:35:15.429Z,101294.97
2023-05-25T10:37:43.995Z,101303.09
2023-05-25T10:40:11.609Z,101298.81
2023-05-25T10:42:39.462Z,101308.97
2023-05-25T10:45:09.154Z,101305.75
2023-05-25T10:47:42.162Z,101308.31
2023-05-25T10:50:19.747Z,101304.59
2023-05-25T10:52:46.932Z,101301.72
2023-05-25T10:55:13.821Z,101301.78
2023-05-25T10:57:40.890Z,101302.13
2023-05-25T11:00:08.997Z,101298.09
2023-05-25T11:02:55.151Z,101308.16
2023-05-25T11:05:27.965Z,101303.00
2023-05-25T11:08:21.452Z,101302.88
2023-05-25T11:10:48.452Z,101308.53
2023-05-25T11:13:37.009Z,101315.13
2023-05-25T11:16:37.938Z,101318.19
2023-05-25T11:19:15.248Z,101321.75
2023-05-25T11:21:44.260Z,101321.75
2023-05-25T11:24:14.114Z,101326.03
2023-05-25T11:26:59.300Z,101328.72
2023-05-25T11:29:31.143Z,101337.34
2023-05-25T11:32:00.340Z,101327.38
2023-05-25T11:34:28.183Z,101334.63
2023-05-25T11:37:01.965Z,101345.25
2023-05-25T11:39:29.747Z,101345.13
2023-05-25T11:42:02.448Z,101347.72
2023-05-25T11:44:31.359Z,101344.28
2023-05-25T11:47:01.833Z,101353.44
2023-05-25T11:49:29.201Z,101354.16
2023-05-25T11:51:57.736Z,101358.00
2023-05-25T11:54:29.190Z,101366.53
2023-05-25T11:56:59.472Z,101369.38
2023-05-25T11:59:29.765Z,101367.66
2023-05-25T12:02:01.188Z,101371.34
2023-05-25T12:04:29.600Z,101367.41
2023-05-25T12:07:04.632Z,101366.13
2023-05-25T12:09:31.956Z,101373.19
2023-05-25T12:11:59.701Z,101368.81
2023-05-25T12:14:27.257Z,101369.38
2023-05-25T12:16:55.312Z,101376.03
2023-05-25T12:19:22.732Z,101371.59
2023-05-25T12:21:51.786Z,101365.66
2023-05-25T12:24:19.528Z,101364.81
2023-05-25T12:26:59.553Z,101370.13
2023-05-25T12:29:26.673Z,101361.63
2023-05-25T12:31:53.828Z,101361.25
2023-05-25T12:34:21.528Z,101360.41
2023-05-25T12:36:56.665Z,101356.88
2023-05-25T12:39:29.578Z,101352.88
2023-05-25T12:41:57.509Z,101365.09
2023-05-25T12:44:33.348Z,101363.13
2023-05-25T12:47:14.185Z,101363.41
2023-05-25T12:49:43.796Z,101365.38
2023-05-25T12:52:11.772Z,101368.63
2023-05-25T12:54:46.869Z,101359.69
2023-05-25T12:57:17.912Z,101369.50
2023-05-25T12:59:47.120Z,101362.41
2023-05-25T13:02:15.015Z,101361.16
2023-05-25T13:04:42.427Z,101368.38
2023-05-25T13:07:10.300Z,101372.06
2023-05-25T13:09:37.843Z,101363.69
2023-05-25T13:12:05.179Z,101368.22
2023-05-25T13:14:32.300Z,101376.16
2023-05-25T13:16:59.309Z,101373.16
2023-05-25T13:19:26.453Z,101384.38
2023-05-25T13:21:53.544Z,101375.03
2023-05-25T13:24:20.642Z,101383.84
2023-05-25T13:26:51.098Z,101386.66
2023-05-25T13:29:18.841Z,101373.34
2023-05-25T13:31:47.133Z,101379.28
2023-05-25T13:34:14.280Z,101380.28
2023-05-25T13:36:41.433Z,101376.47
2023-05-25T13:39:10.929Z,101378.44
2023-05-25T13:41:37.982Z,101377.47
2023-05-25T13:44:05.020Z,101388.66
2023-05-25T13:46:35.076Z,101384.66
2023-05-25T13:49:03.616Z,101385.59
2023-05-25T13:51:31.050Z,101393.97
2023-05-25T13:53:57.995Z,101395.34
2023-05-25T13:56:24.916Z,101394.22
2023-05-25T13:58:52.160Z,101395.09
2023-05-25T14:01:19.310Z,101398.22
2023-05-25T14:03:46.766Z,101404.47
2023-05-25T14:06:13.841Z,101395.38
2023-05-25T14:08:41.093Z,101399.09
2023-05-25T14:11:08.257Z,101400.41
2023-05-25T14:13:36.647Z,101401.69
2023-05-25T14:16:03.920Z,101406.22
2023-05-25T14:18:31.130Z,101406.97
2023-05-25T14:20:58.226Z,101406.97
2023-05-25T14:23:25.183Z,101413.88
2023-05-25T14:25:52.695Z,101414.19
2023-05-25T14:28:19.944Z,101424.97
2023-05-25T14:30:47.500Z,101422.38
2023-05-25T14:33:16.266Z,101426.00
2023-05-25T14:35:43.678Z,101420.59
2023-05-25T14:38:11.099Z,101422.03
2023-05-25T14:40:38.373Z,101414.44
2023-05-25T14:43:05.501Z,101422.13
2023-05-25T14:45:32.498Z,101414.47
2023-05-25T14:48:11.992Z,101419.88
2023-05-25T14:50:44.646Z,101413.63
2023-05-25T14:53:12.095Z,101426.13
2023-05-25T14:55:39.178Z,101425.28
2023-05-25T14:58:06.336Z,101427.00
2023-05-25T15:00:33.849Z,101422.31
2023-05-25T15:03:01.196Z,101421.03
2023-05-25T15:05:28.365Z,101428.28
2023-05-25T15:07:55.585Z,101432.53
2023-05-25T15:10:22.933Z,101434.41
2023-05-25T15:12:49.938Z,101437.94
2023-05-25T15:15:17.391Z,101429.81
2023-05-25T15:17:44.359Z,101440.22
2023-05-25T15:20:11.791Z,101441.47
2023-05-25T15:22:38.987Z,101440.63
2023-05-25T15:25:06.245Z,101435.53
2023-05-25T15:27:34.943Z,101442.63
2023-05-25T15:30:02.046Z,101439.81
2023-05-25T15:32:28.967Z,101442.94
2023-05-25T15:34:56.529Z,101448.31
2023-05-25T15:37:23.471Z,101445.75
2023-05-25T15:39:50.655Z,101452.13
2023-05-25T15:42:17.738Z,101450.16
2023-05-25T15:44:44.736Z,101454.41
2023-05-25T15:47:11.980Z,101452.56
2023-05-25T15:49:39.694Z,101451.75
2023-05-25T15:52:09.641Z,101445.22
2023-05-25T15:54:36.644Z,101454.72
2023-05-25T15:57:03.706Z,101452.84
2023-05-25T15:59:30.858Z,101453.97
2023-05-25T16:01:58.018Z,101459.34
2023-05-25T16:04:28.034Z,101458.66
2023-05-25T16:06:55.196Z,101460.78
2023-05-25T16:09:22.323Z,101458.78
2023-05-25T16:11:49.498Z,101462.19
2023-05-25T16:14:16.856Z,101463.66
2023-05-25T16:16:44.090Z,101456.25
2023-05-25T16:19:13.724Z,101453.84
2023-05-25T16:21:41.222Z,101451.00
2023-05-25T16:24:08.765Z,101457.41
2023-05-25T16:26:35.874Z,101450.72
2023-05-25T16:29:02.966Z,101452.56
2023-05-25T16:31:30.223Z,101450.88
2023-05-25T16:33:59.887Z,101441.78
2023-05-25T16:36:27.199Z,101450.28
2023-05-25T16:38:54.358Z,101444.16
2023-05-25T16:41:21.414Z,101441.88
2023-05-25T16:43:48.518Z,101448.09
2023-05-25T16:46:15.558Z,101441.97
2023-05-25T16:48:42.640Z,101443.97
2023-05-25T16:51:15.220Z,101449.09
2023-05-25T16:53:43.603Z,101448.00
2023-05-25T16:56:11.190Z,101451.72
2023-05-25T16:58:38.261Z,101451.16
2023-05-25T17:01:05.429Z,101451.97
2023-05-25T17:03:32.597Z,101458.47
2023-05-25T17:05:59.676Z,101453.06
2023-05-25T17:08:26.685Z,101452.34
2023-05-25T17:10:53.790Z,101453.75
2023-05-25T17:13:21.336Z,101448.03
2023-05-25T17:15:48.657Z,101459.09
2023-05-25T17:18:16.219Z,101456.94
2023-05-25T17:20:43.480Z,101454.97
2023-05-25T17:23:10.505Z,101453.94
2023-05-25T17:25:39.536Z,101453.25
2023-05-25T17:28:06.549Z,101456.66
2023-05-25T17:30:33.614Z,101455.66
2023-05-25T17:33:01.856Z,101455.66
2023-05-25T17:35:31.648Z,101457.38
2023-05-25T17:37:58.649Z,101451.97
2023-05-25T17:40:25.707Z,101465.34
2023-05-25T17:42:55.556Z,101469.16
2023-05-25T17:45:23.337Z,101476.28
2023-05-25T17:47:50.432Z,101474.28
2023-05-25T17:50:17.500Z,101479.69
2023-05-25T17:52:44.719Z,101483.69
2023-05-25T17:55:11.792Z,101483.69
2023-05-25T17:57:38.750Z,101480.97
2023-05-25T18:00:06.316Z,101483.97
2023-05-25T18:02:39.949Z,101487.97
2023-05-25T18:05:07.184Z,101477.47
2023-05-25T18:07:36.456Z,101479.88
2023-05-25T18:10:03.710Z,101485.16
2023-05-25T18:12:30.690Z,101489.38
2023-05-25T18:14:57.722Z,101485.97
2023-05-25T18:17:24.764Z,101489.69
2023-05-25T18:19:51.992Z,101495.38
2023-05-25T18:22:19.011Z,101504.06
2023-05-25T18:24:46.028Z,101495.09
2023-05-25T18:27:13.064Z,101486.28
2023-05-25T18:29:40.052Z,101493.97
2023-05-25T18:32:07.558Z,101497.13
2023-05-25T18:34:34.594Z,101497.41
2023-05-25T18:37:01.556Z,101497.41
2023-05-25T18:39:28.945Z,101488.59
2023-05-25T18:41:56.282Z,101479.63
2023-05-25T18:44:23.235Z,101474.81
2023-05-25T18:46:51.992Z,101471.53
2023-05-25T18:49:19.077Z,101470.41
2023-05-25T18:51:48.687Z,101469.72
2023-05-25T18:54:15.990Z,101476.94
2023-05-25T18:56:43.075Z,101473.56
2023-05-25T18:59:10.067Z,101474.13
2023-05-25T19:01:37.291Z,101468.72
2023-05-25T19:04:04.493Z,101481.81
2023-05-25T19:06:33.120Z,101484.50
2023-05-25T19:09:00.182Z,101486.06
2023-05-25T19:11:27.384Z,101486.06
2023-05-25T19:13:54.394Z,101483.53
2023-05-25T19:16:21.476Z,101487.53
2023-05-25T19:18:48.709Z,101491.78
2023-05-25T19:21:15.747Z,101498.91
2023-05-25T19:23:42.776Z,101500.75
2023-05-25T19:26:09.692Z,101504.44
2023-05-25T19:28:37.370Z,101507.28
2023-05-25T19:31:04.479Z,101515.97
2023-05-25T19:33:31.513Z,101509.69
2023-05-25T19:35:58.656Z,101510.81
2023-05-25T19:38:28.774Z,101504.44
2023-05-25T19:41:01.621Z,101507.13
2023-05-25T19:43:28.705Z,101511.97
2023-05-25T19:45:56.073Z,101513.69
2023-05-25T19:48:27.268Z,101515.66
2023-05-25T19:50:54.717Z,101521.47
2023-05-25T19:53:21.919Z,101527.59
2023-05-25T19:55:48.917Z,101523.19
2023-05-25T19:58:16.238Z,101523.59
2023-05-25T20:00:43.324Z,101534.41
2023-05-25T20:03:10.776Z,101538.66
2023-05-25T20:05:38.456Z,101546.22
2023-05-25T20:08:06.017Z,101553.75
2023-05-25T20:10:38.960Z,101561.69
2023-05-25T20:13:07.548Z,101560.69
2023-05-25T20:15:35.199Z,101563.13
2023-05-25T20:18:02.701Z,101563.13
2023-05-25T20:20:29.917Z,101572.66
2023-05-25T20:22:57.013Z,101578.75
2023-05-25T20:25:24.018Z,101575.06
2023-05-25T20:27:51.070Z,101574.06
2023-05-25T20:30:18.269Z,101578.91
2023-05-25T20:32:45.981Z,101582.47
2023-05-25T20:35:13.610Z,101583.88
2023-05-25T20:37:41.998Z,101586.84
2023-05-25T20:40:09.500Z,101593.97
2023-05-25T20:42:36.573Z,101590.16
2023-05-25T20:45:04.929Z,101590.72
2023-05-25T20:47:32.212Z,101601.81
2023-05-25T20:49:59.257Z,101610.91
2023-05-25T20:52:26.321Z,101617.44
2023-05-25T20:54:53.380Z,101615.72
2023-05-25T20:57:20.647Z,101615.72
2023-05-25T20:59:48.911Z,101612.31
2023-05-25T21:02:16.077Z,101610.59
2023-05-25T21:04:43.155Z,101613.72
2023-05-25T21:07:10.162Z,101621.28
2023-05-25T21:09:40.711Z,101625.25
2023-05-25T21:12:11.212Z,101625.38
2023-05-25T21:14:38.164Z,101618.00
2023-05-25T21:17:05.258Z,101620.28
2023-05-25T21:19:32.204Z,101618.00
2023-05-25T21:21:59.186Z,101622.81
2023-05-25T21:24:26.230Z,101619.28
2023-05-25T21:26:53.169Z,101610.03
2023-05-25T21:29:20.268Z,101615.72
2023-05-25T21:31:47.481Z,101617.16
2023-05-25T21:34:14.708Z,101620.84
2023-05-25T21:36:41.776Z,101604.66
2023-05-25T21:39:08.809Z,101596.41
2023-05-25T21:41:35.938Z,101602.63
2023-05-25T21:44:02.865Z,101592.69
2023-05-25T21:46:29.944Z,101592.25
2023-05-25T21:48:57.679Z,101592.13
2023-05-25T21:51:25.089Z,101592.25
2023-05-25T21:53:52.052Z,101589.97
2023-05-25T21:56:19.158Z,101583.16
2023-05-25T21:58:46.164Z,101585.88
2023-05-25T22:01:13.236Z,101589.97
2023-05-25T22:03:40.787Z,101587.72
2023-05-25T22:06:07.811Z,101591.69
2023-05-25T22:08:35.783Z,101594.38
2023-05-25T22:11:03.028Z,101581.63
2023-05-25T22:13:30.160Z,101588.13
2023-05-25T22:15:57.144Z,101578.75
2023-05-25T22:18:24.188Z,101575.06
2023-05-25T22:20:51.435Z,101572.50
2023-05-25T22:23:18.456Z,101565.97
2023-05-25T22:25:45.698Z,101559.84
2023-05-25T22:28:12.883Z,101559.16
2023-05-25T22:30:40.262Z,101558.59
2023-05-25T22:33:07.502Z,101557.97
2023-05-25T22:35:34.632Z,101558.25
2023-05-25T22:38:01.704Z,101560.53
2023-05-25T22:40:28.697Z,101554.84
2023-05-25T22:42:55.637Z,101555.69
2023-05-25T22:45:22.682Z,101553.97
2023-05-25T22:47:49.779Z,101548.00
2023-05-25T22:50:16.993Z,101548.28
2023-05-25T22:52:44.169Z,101547.16
2023-05-25T22:55:11.661Z,101547.16
2023-05-25T22:57:39.431Z,101544.00
2023-05-25T23:00:07.135Z,101546.03
2023-05-25T23:02:34.257Z,101541.03
2023-05-25T23:05:01.366Z,101537.19
2023-05-25T23:07:28.429Z,101543.56
2023-05-25T23:09:55.722Z,101537.19
2023-05-25T23:12:23.086Z,101534.66
2023-05-25T23:14:51.903Z,101532.63
2023-05-25T23:17:19.072Z,101538.16
2023-05-25T23:19:46.256Z,101541.16
2023-05-25T23:22:13.211Z,101547.97
2023-05-25T23:24:40.781Z,101540.03
2023-05-25T23:27:08.092Z,101535.47
2023-05-25T23:29:35.137Z,101537.19
2023-05-25T23:32:02.204Z,101535.19
2023-05-25T23:34:29.244Z,101533.19
2023-05-25T23:36:58.296Z,101535.72
2023-05-25T23:39:25.700Z,101536.03
2023-05-25T23:41:52.774Z,101538.56
2023-05-25T23:44:19.768Z,101546.81
2023-05-25T23:46:46.789Z,101542.84
2023-05-25T23:49:13.767Z,101549.22
2023-05-25T23:51:41.085Z,101548.78
2023-05-25T23:54:08.092Z,101544.38
2023-05-25T23:56:35.076Z,101534.31
2023-05-25T23:59:02.488Z,101536.69
